Terminal Aerodrome Forecast
Issued by NWS

Home | Current Version | Previous Version | Text Only | Print | Product List | Glossary On
Versions: 1 2 3 4 5 6 7 8 9 10 11 12 13 14
000
FTUS44 KMAF 281700
TAFINK
TAF
KINK 281725Z 2818/2918 27007KT P6SM SCT250
     FM291100 01007KT P6SM SCT250
     FM291500 03014G20KT P6SM BKN250=

USA.gov is the U.S. government's official web portal to all federal, state and local government web resources and services.